createdAt,value
2023-10-09T00:02:11.388Z,3.22
2023-10-09T00:04:42.863Z,6.60
2023-10-09T00:07:11.540Z,3.88
2023-10-09T00:09:48.369Z,3.55
2023-10-09T00:12:24.357Z,6.22
2023-10-09T00:14:56.769Z,6.35
2023-10-09T00:17:24.581Z,4.43
2023-10-09T00:19:52.606Z,4.50
2023-10-09T00:22:26.249Z,4.65
2023-10-09T00:25:28.524Z,5.25
2023-10-09T00:27:55.097Z,4.32
2023-10-09T00:30:31.234Z,5.65
2023-10-09T00:33:02.432Z,4.68
2023-10-09T00:35:40.861Z,3.38
2023-10-09T00:38:25.417Z,6.80
2023-10-09T00:41:08.944Z,6.13
2023-10-09T00:43:37.736Z,6.40
2023-10-09T00:46:18.020Z,4.60
2023-10-09T00:48:48.800Z,5.75
2023-10-09T00:51:20.539Z,6.25
2023-10-09T00:53:53.046Z,3.90
2023-10-09T00:56:29.929Z,5.13
2023-10-09T00:59:15.524Z,3.05
2023-10-09T01:02:03.078Z,5.05
2023-10-09T01:04:31.145Z,4.65
2023-10-09T01:07:16.807Z,4.63
2023-10-09T01:09:45.662Z,4.05
2023-10-09T01:12:18.530Z,5.43
2023-10-09T01:14:46.114Z,5.65
2023-10-09T01:17:13.489Z,4.28
2023-10-09T01:19:40.342Z,5.68
2023-10-09T01:22:17.216Z,4.20
2023-10-09T01:24:44.968Z,3.80
2023-10-09T01:27:18.056Z,4.10
2023-10-09T01:29:47.471Z,4.80
2023-10-09T01:32:18.014Z,5.22
2023-10-09T01:34:51.741Z,5.53
2023-10-09T01:37:21.506Z,8.23
2023-10-09T01:39:52.702Z,7.65
2023-10-09T01:45:21.921Z,3.55
2023-10-09T01:47:57.916Z,4.72
2023-10-09T01:50:43.462Z,5.28
2023-10-09T01:53:10.237Z,4.00
2023-10-09T01:55:38.791Z,4.03
2023-10-09T01:58:17.904Z,5.68
2023-10-09T02:00:49.608Z,5.72
2023-10-09T02:03:16.868Z,4.60
2023-10-09T02:05:43.715Z,4.65
2023-10-09T02:08:11.587Z,3.50
2023-10-09T02:10:40.787Z,5.70
2023-10-09T02:13:11.172Z,3.90
2023-10-09T02:15:44.578Z,5.65
2023-10-09T02:18:24.039Z,4.00
2023-10-09T02:21:00.801Z,4.82
2023-10-09T02:23:40.313Z,7.32
2023-10-09T02:26:08.469Z,5.05
2023-10-09T02:28:35.920Z,6.03
2023-10-09T02:31:11.326Z,5.28
2023-10-09T02:33:40.259Z,5.28
2023-10-09T02:36:08.009Z,3.92
2023-10-09T02:38:37.076Z,3.78
2023-10-09T02:41:03.826Z,5.00
2023-10-09T02:43:47.619Z,4.55
2023-10-09T02:46:30.497Z,5.45
2023-10-09T02:49:04.670Z,7.45
2023-10-09T02:51:34.989Z,5.07
2023-10-09T02:54:23.545Z,3.70
2023-10-09T02:56:57.356Z,4.68
2023-10-09T02:59:24.874Z,4.10
2023-10-09T03:01:55.068Z,4.07
2023-10-09T03:04:24.986Z,4.90
2023-10-09T03:09:33.498Z,5.47
2023-10-09T03:12:06.767Z,5.38
2023-10-09T03:14:39.216Z,5.07
2023-10-09T03:17:08.229Z,4.30
2023-10-09T03:19:39.011Z,4.30
2023-10-09T03:22:10.652Z,5.15
2023-10-09T03:24:38.975Z,3.13
2023-10-09T03:27:06.099Z,7.28
2023-10-09T03:29:32.783Z,6.38
2023-10-09T03:32:01.211Z,6.68
2023-10-09T03:34:29.106Z,5.57
2023-10-09T03:37:21.920Z,4.45
2023-10-09T03:39:49.572Z,5.45
2023-10-09T03:42:23.749Z,6.57
2023-10-09T03:44:53.823Z,4.07
2023-10-09T03:47:24.284Z,5.38
2023-10-09T03:49:55.319Z,5.43
2023-10-09T03:52:26.684Z,6.90
2023-10-09T03:54:53.819Z,6.25
2023-10-09T03:57:20.800Z,7.72
2023-10-09T03:59:52.836Z,7.88
2023-10-09T04:02:19.664Z,9.30
2023-10-09T04:04:48.662Z,6.32
2023-10-09T04:07:18.986Z,6.47
2023-10-09T04:10:11.403Z,6.30
2023-10-09T04:12:40.835Z,6.25
2023-10-09T04:15:16.217Z,8.60
2023-10-09T04:17:44.350Z,7.60
2023-10-09T04:20:37.172Z,9.35
2023-10-09T04:23:07.513Z,8.57
2023-10-09T04:25:43.649Z,7.45
2023-10-09T04:28:20.345Z,8.45
2023-10-09T04:30:48.593Z,7.07
2023-10-09T04:33:33.919Z,8.90
2023-10-09T04:36:23.547Z,9.88
2023-10-09T04:39:05.790Z,9.30
2023-10-09T04:41:53.153Z,9.73
2023-10-09T04:44:21.721Z,9.07
2023-10-09T04:47:08.296Z,7.70
2023-10-09T04:49:48.938Z,8.65
2023-10-09T04:52:30.404Z,7.93
2023-10-09T04:55:13.749Z,7.60
2023-10-09T04:57:45.062Z,7.15
2023-10-09T05:00:27.851Z,12.80
2023-10-09T05:02:58.130Z,8.80
2023-10-09T05:05:42.147Z,9.07
2023-10-09T05:08:31.051Z,9.70
2023-10-09T05:10:58.737Z,8.55
2023-10-09T05:13:42.900Z,8.35
2023-10-09T05:16:20.863Z,8.88
2023-10-09T05:21:33.566Z,9.27
2023-10-09T05:24:14.497Z,8.85
2023-10-09T05:26:49.831Z,9.70
2023-10-09T05:29:30.323Z,12.90
2023-10-09T05:32:15.382Z,12.07
2023-10-09T05:35:01.510Z,10.80
2023-10-09T05:37:33.968Z,10.77
2023-10-09T05:40:03.550Z,10.77
2023-10-09T05:42:44.764Z,10.32
2023-10-09T05:45:20.518Z,10.85
2023-10-09T05:48:07.928Z,9.27
2023-10-09T05:50:56.685Z,9.20
2023-10-09T05:53:41.855Z,12.32
2023-10-09T05:56:27.131Z,12.95
2023-10-09T05:59:12.181Z,10.98
2023-10-09T06:01:41.668Z,9.73
2023-10-09T06:04:17.625Z,11.77
2023-10-09T06:06:56.689Z,12.30
2023-10-09T06:09:23.945Z,11.27
2023-10-09T06:11:56.419Z,12.13
2023-10-09T06:14:30.954Z,12.75
2023-10-09T06:17:02.405Z,13.02
2023-10-09T06:19:29.772Z,11.27
2023-10-09T06:22:13.958Z,11.30
2023-10-09T06:24:55.610Z,11.40
2023-10-09T06:27:32.761Z,11.23
2023-10-09T06:30:19.034Z,11.18
2023-10-09T06:32:52.404Z,10.85
2023-10-09T06:35:19.430Z,11.98
2023-10-09T06:38:04.480Z,11.10
2023-10-09T06:40:55.253Z,12.45
2023-10-09T06:43:23.342Z,10.75
2023-10-09T06:45:59.955Z,9.98
2023-10-09T06:48:36.013Z,15.80
2023-10-09T06:51:40.412Z,12.93
2023-10-09T06:54:10.865Z,11.88
2023-10-09T06:56:37.846Z,9.85
2023-10-09T06:59:24.637Z,11.32
2023-10-09T07:02:10.574Z,12.27
2023-10-09T07:04:38.050Z,12.10
2023-10-09T07:07:25.326Z,11.50
2023-10-09T07:10:11.499Z,13.18
2023-10-09T07:12:43.865Z,11.40
2023-10-09T07:15:43.450Z,11.55
2023-10-09T07:18:24.827Z,11.43
2023-10-09T07:21:00.701Z,9.82
2023-10-09T07:23:33.941Z,12.73
2023-10-09T07:26:19.333Z,10.10
2023-10-09T07:28:49.653Z,14.00
2023-10-09T07:31:40.947Z,14.40
2023-10-09T07:34:28.067Z,14.40
2023-10-09T07:36:57.729Z,14.35
2023-10-09T07:39:25.172Z,14.77
2023-10-09T07:42:02.906Z,13.07
2023-10-09T07:44:37.997Z,13.52
2023-10-09T07:47:16.508Z,15.57
2023-10-09T07:49:43.544Z,16.17
2023-10-09T07:52:10.303Z,14.10
2023-10-09T07:54:37.664Z,13.40
2023-10-09T07:57:16.444Z,14.85
2023-10-09T07:59:55.594Z,15.50
2023-10-09T08:02:32.789Z,15.25
2023-10-09T08:05:20.253Z,12.85
2023-10-09T08:08:31.090Z,14.45
2023-10-09T08:11:41.148Z,13.38
2023-10-09T08:14:22.211Z,13.35
2023-10-09T08:16:53.029Z,16.98
2023-10-09T08:19:34.847Z,15.20
2023-10-09T08:22:19.405Z,14.90
2023-10-09T08:24:53.829Z,14.25
2023-10-09T08:27:32.449Z,16.23
2023-10-09T08:30:19.163Z,17.00
2023-10-09T08:35:49.365Z,14.93
2023-10-09T08:38:24.482Z,18.55
2023-10-09T08:40:55.644Z,18.55
2023-10-09T08:43:23.352Z,18.30
2023-10-09T08:45:54.280Z,20.08
2023-10-09T08:48:22.744Z,22.38
2023-10-09T08:50:55.417Z,31.98
2023-10-09T08:53:24.953Z,19.25
2023-10-09T08:55:52.419Z,18.75
2023-10-09T08:58:26.106Z,23.50
2023-10-09T09:00:53.746Z,20.45
2023-10-09T09:03:26.954Z,20.95
2023-10-09T09:06:05.839Z,21.17
2023-10-09T09:08:37.810Z,16.02
2023-10-09T09:11:23.593Z,16.60
2023-10-09T09:14:07.971Z,18.65
2023-10-09T09:16:37.699Z,16.73
2023-10-09T09:19:09.595Z,17.50
2023-10-09T09:22:12.849Z,17.25
2023-10-09T09:24:40.577Z,17.02
2023-10-09T09:27:19.833Z,14.25
2023-10-09T09:29:53.897Z,15.55
2023-10-09T09:32:36.868Z,13.98
2023-10-09T09:35:07.359Z,14.80
2023-10-09T09:37:55.484Z,12.27
2023-10-09T09:40:34.709Z,16.10
2023-10-09T09:43:22.580Z,12.23
2023-10-09T09:45:52.904Z,12.05
2023-10-09T09:48:20.142Z,16.67
2023-10-09T09:50:55.055Z,12.80
2023-10-09T09:53:24.368Z,12.57
2023-10-09T09:55:57.390Z,12.07
2023-10-09T09:58:43.854Z,12.65
2023-10-09T10:01:17.555Z,11.57
2023-10-09T10:03:50.647Z,12.82
2023-10-09T10:06:21.210Z,13.13
2023-10-09T10:08:52.232Z,10.20
2023-10-09T10:11:49.578Z,13.05
2023-10-09T10:14:42.409Z,13.23
2023-10-09T10:17:18.845Z,12.93
2023-10-09T10:20:00.933Z,12.73
2023-10-09T10:22:32.050Z,10.20
2023-10-09T10:24:59.670Z,15.80
2023-10-09T10:27:27.842Z,13.65
2023-10-09T10:30:25.105Z,11.35
2023-10-09T10:32:54.802Z,12.00
2023-10-09T10:35:33.602Z,10.07
2023-10-09T10:38:09.476Z,7.13
2023-10-09T10:40:47.921Z,11.38
2023-10-09T10:43:33.491Z,10.10
2023-10-09T10:46:25.162Z,10.48
2023-10-09T10:49:01.784Z,13.38
2023-10-09T10:51:49.416Z,10.63
2023-10-09T10:54:35.088Z,10.35
2023-10-09T10:57:01.820Z,12.68
2023-10-09T10:59:37.844Z,13.52
2023-10-09T11:02:11.512Z,12.80
2023-10-09T11:04:45.557Z,11.25
2023-10-09T11:07:26.158Z,10.75
2023-10-09T11:10:07.258Z,12.43
2023-10-09T11:12:43.934Z,11.23
2023-10-09T11:15:24.170Z,12.07
2023-10-09T11:18:08.701Z,12.05
2023-10-09T11:20:37.484Z,11.98
2023-10-09T11:23:11.435Z,12.48
2023-10-09T11:25:53.747Z,13.18
2023-10-09T11:28:32.444Z,11.07
2023-10-09T11:31:17.958Z,11.23
2023-10-09T11:33:49.964Z,10.52
2023-10-09T11:36:17.463Z,9.88
2023-10-09T11:38:49.441Z,10.88
2023-10-09T11:41:21.098Z,14.48
2023-10-09T11:43:55.625Z,15.18
2023-10-09T11:46:39.006Z,15.98
2023-10-09T11:49:22.259Z,14.95
2023-10-09T11:52:07.883Z,14.20
2023-10-09T11:54:36.209Z,12.25
2023-10-09T11:57:03.958Z,15.82
2023-10-09T11:59:42.448Z,16.52
2023-10-09T12:02:14.084Z,13.75
2023-10-09T12:04:46.772Z,14.75
2023-10-09T12:07:14.286Z,13.05
2023-10-09T12:09:41.549Z,16.85
2023-10-09T12:12:12.400Z,14.43
2023-10-09T12:14:39.100Z,14.50
2023-10-09T12:17:07.100Z,15.77
2023-10-09T12:19:35.006Z,15.57
2023-10-09T12:22:02.552Z,17.88
2023-10-09T12:24:30.286Z,17.88
2023-10-09T12:26:57.289Z,16.05
2023-10-09T12:29:24.961Z,20.08
2023-10-09T12:31:59.280Z,16.42
2023-10-09T12:34:29.360Z,14.27
2023-10-09T12:36:56.795Z,15.18
2023-10-09T12:39:23.596Z,17.45
2023-10-09T12:41:54.659Z,16.98
2023-10-09T12:44:21.484Z,17.17
2023-10-09T12:46:54.296Z,16.27
2023-10-09T12:49:28.023Z,19.30
2023-10-09T12:51:55.662Z,15.93
2023-10-09T12:54:28.368Z,18.77
2023-10-09T12:56:56.510Z,15.40
2023-10-09T12:59:25.682Z,19.95
2023-10-09T13:01:59.021Z,16.02
2023-10-09T13:04:33.251Z,13.27
2023-10-09T13:07:05.036Z,18.13
2023-10-09T13:09:43.716Z,19.98
2023-10-09T13:12:19.231Z,19.20
2023-10-09T13:14:48.538Z,21.73
2023-10-09T13:17:15.381Z,17.10
2023-10-09T13:19:42.229Z,17.88
2023-10-09T13:22:14.070Z,15.23
2023-10-09T13:24:43.369Z,15.75
2023-10-09T13:27:11.045Z,15.57
2023-10-09T13:29:43.666Z,15.80
2023-10-09T13:32:16.340Z,17.90
2023-10-09T13:34:46.151Z,15.77
2023-10-09T13:37:15.024Z,16.25
2023-10-09T13:39:53.600Z,16.27
2023-10-09T13:42:20.790Z,15.52
2023-10-09T13:44:50.047Z,17.20
2023-10-09T13:47:24.514Z,14.32
2023-10-09T13:49:51.977Z,18.50
2023-10-09T13:52:19.706Z,18.55
2023-10-09T13:54:49.427Z,18.52
2023-10-09T13:57:16.751Z,19.35
2023-10-09T13:59:50.160Z,16.05
2023-10-09T14:02:19.349Z,15.60
2023-10-09T14:04:53.508Z,21.33
2023-10-09T14:07:21.398Z,16.55
2023-10-09T14:09:57.205Z,13.52
2023-10-09T14:12:25.934Z,16.23
2023-10-09T14:14:57.891Z,17.13
2023-10-09T14:17:25.121Z,16.00
2023-10-09T14:19:53.338Z,14.20
2023-10-09T14:22:21.509Z,14.15
2023-10-09T14:24:56.670Z,14.40
2023-10-09T14:27:28.018Z,18.95
2023-10-09T14:30:02.044Z,16.20
2023-10-09T14:32:38.308Z,13.43
2023-10-09T14:35:14.323Z,13.43
2023-10-09T14:37:42.170Z,8.30
2023-10-09T14:40:14.533Z,7.43
2023-10-09T14:42:46.201Z,9.23
2023-10-09T14:45:16.835Z,6.40
2023-10-09T14:47:44.031Z,12.25
2023-10-09T14:50:14.616Z,8.85
2023-10-09T14:52:41.863Z,7.90
2023-10-09T14:55:10.896Z,7.30
2023-10-09T14:57:37.724Z,11.30
2023-10-09T15:00:14.839Z,7.78
2023-10-09T15:05:13.097Z,9.07
2023-10-09T15:07:43.851Z,7.72
2023-10-09T15:10:16.331Z,13.35
2023-10-09T15:12:44.208Z,8.85
2023-10-09T15:15:18.656Z,10.40
2023-10-09T15:17:49.309Z,9.50
2023-10-09T15:20:16.785Z,9.57
2023-10-09T15:22:44.714Z,11.32
2023-10-09T15:25:15.703Z,10.55
2023-10-09T15:27:43.869Z,9.63
2023-10-09T15:30:14.737Z,12.50
2023-10-09T15:32:45.466Z,8.52
2023-10-09T15:35:14.657Z,9.20
2023-10-09T15:37:45.131Z,9.93
2023-10-09T15:40:16.017Z,10.00
2023-10-09T15:42:44.753Z,10.48
2023-10-09T15:45:13.225Z,10.43
2023-10-09T15:47:40.926Z,10.13
2023-10-09T15:50:13.094Z,9.55
2023-10-09T15:52:40.341Z,9.73
2023-10-09T15:55:14.506Z,10.02
2023-10-09T15:57:42.755Z,9.48
2023-10-09T16:00:18.947Z,9.10
2023-10-09T16:02:49.050Z,10.57
2023-10-09T16:05:19.354Z,11.07
2023-10-09T16:08:07.158Z,11.50
2023-10-09T16:10:35.864Z,13.05
2023-10-09T16:13:02.767Z,12.63
2023-10-09T16:15:29.761Z,11.15
2023-10-09T16:18:07.751Z,10.93
2023-10-09T16:20:37.744Z,12.50
2023-10-09T16:23:05.947Z,11.75
2023-10-09T16:25:35.228Z,11.27
2023-10-09T16:28:05.424Z,10.73
2023-10-09T16:30:32.149Z,13.30
2023-10-09T16:32:59.302Z,11.98
2023-10-09T16:35:35.420Z,9.98
2023-10-09T16:38:06.169Z,10.35
2023-10-09T16:40:33.103Z,13.38
2023-10-09T16:43:02.132Z,10.40
2023-10-09T16:45:28.820Z,13.65
2023-10-09T16:48:00.177Z,11.40
2023-10-09T16:50:29.414Z,11.85
2023-10-09T16:52:56.502Z,10.98
2023-10-09T16:55:25.544Z,13.07
2023-10-09T16:57:52.465Z,10.13
2023-10-09T17:00:29.576Z,12.52
2023-10-09T17:02:57.951Z,11.15
2023-10-09T17:05:33.990Z,9.93
2023-10-09T17:08:01.446Z,11.40
2023-10-09T17:10:32.757Z,10.90
2023-10-09T17:13:01.646Z,10.38
2023-10-09T17:15:34.048Z,10.32
2023-10-09T17:18:04.144Z,9.18
2023-10-09T17:20:31.379Z,9.98
2023-10-09T17:23:01.306Z,10.68
2023-10-09T17:25:32.218Z,10.48
2023-10-09T17:28:00.769Z,10.00
2023-10-09T17:30:34.542Z,10.95
2023-10-09T17:33:05.350Z,10.73
2023-10-09T17:35:32.623Z,9.70
2023-10-09T17:38:00.119Z,9.43
2023-10-09T17:40:29.711Z,10.38
2023-10-09T17:42:57.262Z,9.73
2023-10-09T17:45:25.706Z,10.50
2023-10-09T17:47:55.034Z,10.32
2023-10-09T17:50:23.252Z,10.23
2023-10-09T17:52:50.404Z,10.07
2023-10-09T17:55:18.969Z,7.72
2023-10-09T17:57:51.108Z,10.50
2023-10-09T18:00:26.739Z,8.98
2023-10-09T18:02:54.057Z,8.15
2023-10-09T18:05:21.262Z,11.27
2023-10-09T18:07:53.160Z,9.65
2023-10-09T18:10:22.162Z,12.20
2023-10-09T18:12:54.057Z,10.25
2023-10-09T18:15:21.957Z,10.32
2023-10-09T18:17:48.992Z,9.75
2023-10-09T18:20:15.872Z,9.23
2023-10-09T18:22:42.517Z,7.32
2023-10-09T18:25:10.423Z,8.00
2023-10-09T18:27:37.176Z,7.63
2023-10-09T18:30:06.440Z,6.90
2023-10-09T18:32:33.100Z,7.00
2023-10-09T18:35:00.422Z,5.15
2023-10-09T18:37:27.185Z,6.80
2023-10-09T18:39:53.825Z,6.10
2023-10-09T18:42:20.474Z,6.82
2023-10-09T18:44:47.683Z,6.57
2023-10-09T18:47:20.563Z,7.65
2023-10-09T18:49:51.521Z,10.48
2023-10-09T18:54:46.556Z,8.93
2023-10-09T18:57:16.836Z,11.30
2023-10-09T18:59:44.418Z,11.73
2023-10-09T19:02:12.819Z,10.05
2023-10-09T19:04:39.977Z,9.32
2023-10-09T19:07:07.135Z,10.68
2023-10-09T19:09:33.879Z,10.48
2023-10-09T19:12:00.549Z,9.55
2023-10-09T19:14:27.343Z,10.15
2023-10-09T19:16:59.493Z,10.07
2023-10-09T19:19:26.656Z,9.35
2023-10-09T19:21:54.278Z,10.77
2023-10-09T19:24:21.000Z,12.52
2023-10-09T19:26:47.719Z,11.38
2023-10-09T19:29:14.795Z,13.93
2023-10-09T19:31:43.778Z,9.77
2023-10-09T19:34:14.328Z,11.80
2023-10-09T19:36:42.341Z,12.07
2023-10-09T19:39:10.003Z,10.35
2023-10-09T19:41:36.971Z,8.63
2023-10-09T19:44:05.823Z,12.13
2023-10-09T19:46:34.648Z,12.38
2023-10-09T19:49:02.015Z,12.45
2023-10-09T19:51:30.368Z,11.00
2023-10-09T19:53:57.181Z,11.38
2023-10-09T19:56:24.128Z,12.02
2023-10-09T19:58:53.687Z,11.25
2023-10-09T20:01:20.486Z,10.82
2023-10-09T20:03:47.221Z,11.75
2023-10-09T20:06:17.193Z,12.02
2023-10-09T20:08:43.828Z,9.82
2023-10-09T20:11:13.763Z,12.00
2023-10-09T20:13:43.065Z,10.82
2023-10-09T20:16:10.552Z,13.20
2023-10-09T20:18:44.136Z,14.77
2023-10-09T20:21:14.097Z,15.18
2023-10-09T20:23:41.782Z,12.30
2023-10-09T20:26:18.242Z,11.63
2023-10-09T20:28:46.956Z,13.38
2023-10-09T20:31:14.077Z,14.10
2023-10-09T20:33:43.369Z,11.93
2023-10-09T20:36:19.998Z,10.88
2023-10-09T20:38:48.922Z,9.55
2023-10-09T20:41:17.385Z,10.93
2023-10-09T20:43:44.205Z,9.15
2023-10-09T20:46:13.205Z,8.18
2023-10-09T20:48:43.141Z,11.90
2023-10-09T20:51:11.628Z,8.82
2023-10-09T20:53:41.323Z,9.05
2023-10-09T20:56:09.580Z,10.27
2023-10-09T20:58:36.455Z,9.05
2023-10-09T21:01:15.678Z,6.10
2023-10-09T21:03:48.082Z,8.35
2023-10-09T21:06:15.412Z,7.78
2023-10-09T21:08:43.678Z,8.50
2023-10-09T21:11:11.001Z,9.35
2023-10-09T21:13:38.597Z,6.45
2023-10-09T21:16:15.478Z,6.85
2023-10-09T21:18:46.324Z,7.60
2023-10-09T21:23:44.948Z,9.07
2023-10-09T21:26:19.314Z,12.77
2023-10-09T21:28:47.875Z,9.05
2023-10-09T21:31:17.121Z,11.07
2023-10-09T21:33:44.878Z,10.85
2023-10-09T21:36:11.592Z,12.43
2023-10-09T21:38:38.800Z,12.02
2023-10-09T21:41:22.708Z,14.73
2023-10-09T21:43:54.730Z,13.80
2023-10-09T21:46:26.046Z,18.15
2023-10-09T21:48:52.783Z,20.30
2023-10-09T21:51:19.478Z,17.85
2023-10-09T21:53:46.267Z,18.67
2023-10-09T21:56:21.018Z,18.40
2023-10-09T21:58:48.138Z,19.42
2023-10-09T22:01:15.669Z,19.45
2023-10-09T22:03:42.837Z,17.00
2023-10-09T22:06:13.393Z,18.55
2023-10-09T22:08:40.416Z,18.38
2023-10-09T22:11:08.481Z,20.80
2023-10-09T22:13:35.855Z,17.83
2023-10-09T22:16:02.592Z,17.67
2023-10-09T22:18:43.720Z,19.48
2023-10-09T22:21:11.739Z,19.60
2023-10-09T22:23:46.649Z,18.40
2023-10-09T22:26:17.518Z,17.05
2023-10-09T22:28:47.383Z,18.83
2023-10-09T22:31:16.769Z,19.25
2023-10-09T22:33:47.286Z,18.85
2023-10-09T22:36:38.260Z,19.38
2023-10-09T22:39:21.118Z,16.38
2023-10-09T22:41:50.810Z,17.23
2023-10-09T22:44:19.803Z,19.08
2023-10-09T22:46:47.699Z,16.40
2023-10-09T22:49:15.974Z,20.33
2023-10-09T22:51:53.872Z,15.32
2023-10-09T22:54:36.760Z,16.90
2023-10-09T22:57:06.580Z,20.05
2023-10-09T22:59:44.961Z,17.30
2023-10-09T23:02:23.090Z,17.15
2023-10-09T23:04:57.325Z,17.88
2023-10-09T23:07:24.440Z,15.43
2023-10-09T23:09:51.932Z,14.75
2023-10-09T23:12:26.176Z,17.27
2023-10-09T23:14:56.298Z,16.58
2023-10-09T23:17:43.392Z,17.27
2023-10-09T23:20:18.356Z,14.90
2023-10-09T23:22:52.678Z,18.75
2023-10-09T23:25:34.993Z,15.48
2023-10-09T23:28:36.788Z,17.38
2023-10-09T23:31:27.177Z,16.35
2023-10-09T23:33:57.053Z,15.60
2023-10-09T23:36:28.487Z,13.65
2023-10-09T23:39:13.172Z,16.63
2023-10-09T23:41:41.005Z,14.20
2023-10-09T23:44:11.267Z,13.40
2023-10-09T23:46:38.278Z,13.55
2023-10-09T23:49:08.158Z,12.57
2023-10-09T23:51:41.035Z,13.75
2023-10-09T23:54:12.008Z,14.88
2023-10-09T23:59:18.777Z,16.63
